createdAt,value
2023-01-06T00:01:22.647Z,11.75
2023-01-06T00:04:01.800Z,7.78
2023-01-06T00:06:39.891Z,7.60
2023-01-06T00:09:12.953Z,5.85
2023-01-06T00:14:35.657Z,7.55
2023-01-06T00:17:10.460Z,7.97
2023-01-06T00:19:46.113Z,11.45
2023-01-06T00:22:16.580Z,6.43
2023-01-06T00:25:00.182Z,10.07
2023-01-06T00:27:38.626Z,7.88
2023-01-06T00:30:10.714Z,7.63
2023-01-06T00:32:50.362Z,8.30
2023-01-06T00:35:45.762Z,7.60
2023-01-06T00:38:31.543Z,7.07
2023-01-06T00:41:29.930Z,9.23
2023-01-06T00:46:46.185Z,8.02
2023-01-06T00:49:31.372Z,9.35
2023-01-06T00:52:07.111Z,7.57
2023-01-06T00:54:46.064Z,11.15
2023-01-06T00:57:17.890Z,8.73
2023-01-06T01:00:02.088Z,10.50
2023-01-06T01:05:11.420Z,10.80
2023-01-06T01:08:02.025Z,7.60
2023-01-06T01:10:55.985Z,9.70
2023-01-06T01:13:41.812Z,11.00
2023-01-06T01:16:20.913Z,10.18
2023-01-06T01:18:51.682Z,9.15
2023-01-06T01:21:25.772Z,10.75
2023-01-06T01:23:56.044Z,11.35
2023-01-06T01:26:27.255Z,9.50
2023-01-06T01:28:58.172Z,11.23
2023-01-06T01:31:34.388Z,7.97
2023-01-06T01:34:05.480Z,8.15
2023-01-06T01:36:36.190Z,9.65
2023-01-06T01:39:07.705Z,11.55
2023-01-06T01:41:47.132Z,9.32
2023-01-06T01:44:37.248Z,7.35
2023-01-06T01:47:07.581Z,10.20
2023-01-06T01:49:42.606Z,7.90
2023-01-06T01:52:14.481Z,10.93
2023-01-06T01:54:43.760Z,6.57
2023-01-06T01:57:26.288Z,8.90
2023-01-06T01:59:57.431Z,9.68
2023-01-06T02:02:37.927Z,11.10
2023-01-06T02:05:12.038Z,10.07
2023-01-06T02:07:42.615Z,8.38
2023-01-06T02:10:12.947Z,9.55
2023-01-06T02:12:41.871Z,8.65
2023-01-06T02:15:15.565Z,7.90
2023-01-06T02:17:55.885Z,8.68
2023-01-06T02:23:46.584Z,13.02
2023-01-06T02:26:37.804Z,12.73
2023-01-06T02:29:27.075Z,11.57
2023-01-06T02:32:05.083Z,7.97
2023-01-06T02:37:33.114Z,10.07
2023-01-06T02:40:20.421Z,9.02
2023-01-06T02:45:46.861Z,8.40
2023-01-06T02:48:36.562Z,7.70
2023-01-06T02:51:07.288Z,6.10
2023-01-06T02:54:06.926Z,6.95
2023-01-06T02:56:52.485Z,7.60
2023-01-06T02:59:28.562Z,8.57
2023-01-06T03:05:06.952Z,9.07
2023-01-06T03:07:46.890Z,6.78
2023-01-06T03:10:17.122Z,9.65
2023-01-06T03:12:51.676Z,8.57
2023-01-06T03:15:26.484Z,10.07
2023-01-06T03:18:06.972Z,9.20
2023-01-06T03:20:49.653Z,7.53
2023-01-06T03:23:40.588Z,6.38
2023-01-06T03:26:16.500Z,8.45
2023-01-06T03:28:49.602Z,9.52
2023-01-06T03:31:32.115Z,6.78
2023-01-06T03:34:19.424Z,6.22
2023-01-06T03:37:08.785Z,9.60
2023-01-06T03:39:42.695Z,8.90
2023-01-06T03:45:17.640Z,8.18
2023-01-06T03:48:08.170Z,7.07
2023-01-06T03:50:43.516Z,6.93
2023-01-06T03:53:23.495Z,7.43
2023-01-06T03:55:57.565Z,7.55
2023-01-06T03:58:29.615Z,8.05
2023-01-06T04:01:04.489Z,9.23
2023-01-06T04:03:38.190Z,6.30
2023-01-06T04:06:09.339Z,7.93
2023-01-06T04:08:42.588Z,6.30
2023-01-06T04:11:35.824Z,6.43
2023-01-06T04:14:07.549Z,7.35
2023-01-06T04:16:38.795Z,6.05
2023-01-06T04:19:14.778Z,6.00
2023-01-06T04:21:45.563Z,6.53
2023-01-06T04:24:19.991Z,5.05
2023-01-06T04:26:54.501Z,6.88
2023-01-06T04:29:25.096Z,6.43
2023-01-06T04:31:56.617Z,9.38
2023-01-06T04:34:30.428Z,5.55
2023-01-06T04:39:35.632Z,6.65
2023-01-06T04:42:04.495Z,5.32
2023-01-06T04:44:35.879Z,5.88
2023-01-06T04:47:14.388Z,4.47
2023-01-06T04:49:49.417Z,4.50
2023-01-06T04:52:20.665Z,6.95
2023-01-06T04:54:55.916Z,4.22
2023-01-06T04:57:29.867Z,5.93
2023-01-06T05:00:00.575Z,3.85
2023-01-06T05:02:34.640Z,6.55
2023-01-06T05:05:04.280Z,6.07
2023-01-06T05:07:34.847Z,7.22
2023-01-06T05:10:11.146Z,4.95
2023-01-06T05:12:44.721Z,4.55
2023-01-06T05:15:21.026Z,3.97
2023-01-06T05:17:53.862Z,4.03
2023-01-06T05:20:25.020Z,3.60
2023-01-06T05:22:59.929Z,3.63
2023-01-06T05:25:33.690Z,3.55
2023-01-06T05:30:35.998Z,3.72
2023-01-06T05:33:14.948Z,3.05
2023-01-06T05:35:46.581Z,3.85
2023-01-06T05:38:20.349Z,3.38
2023-01-06T05:43:25.397Z,3.30
2023-01-06T05:45:59.283Z,3.67
2023-01-06T05:48:30.671Z,3.28
2023-01-06T05:51:05.143Z,3.17
2023-01-06T05:53:40.079Z,3.60
2023-01-06T05:56:15.387Z,3.17
2023-01-06T05:58:50.927Z,2.72
2023-01-06T06:01:21.224Z,4.00
2023-01-06T06:03:55.439Z,3.00
2023-01-06T06:06:28.237Z,3.05
2023-01-06T06:09:00.826Z,4.82
2023-01-06T06:11:40.304Z,4.55
2023-01-06T06:14:18.093Z,3.08
2023-01-06T06:16:50.008Z,3.40
2023-01-06T06:19:26.125Z,2.92
2023-01-06T06:22:10.659Z,5.50
2023-01-06T06:24:43.987Z,4.05
2023-01-06T06:27:15.777Z,2.42
2023-01-06T06:29:51.069Z,3.72
2023-01-06T06:32:25.758Z,3.72
2023-01-06T06:34:55.109Z,3.63
2023-01-06T06:37:23.716Z,4.85
2023-01-06T06:39:55.085Z,4.07
2023-01-06T06:42:25.513Z,4.43
2023-01-06T06:45:05.933Z,4.13
2023-01-06T06:47:38.588Z,4.55
2023-01-06T06:50:07.829Z,4.90
2023-01-06T06:52:44.961Z,7.10
2023-01-06T06:55:15.658Z,4.32
2023-01-06T06:57:46.600Z,3.60
2023-01-06T07:00:30.884Z,4.88
2023-01-06T07:03:09.675Z,3.50
2023-01-06T07:05:44.080Z,4.75
2023-01-06T07:08:15.339Z,4.03
2023-01-06T07:10:49.376Z,4.47
2023-01-06T07:13:19.095Z,5.00
2023-01-06T07:15:49.532Z,5.55
2023-01-06T07:18:20.141Z,4.35
2023-01-06T07:20:50.798Z,4.15
2023-01-06T07:23:21.369Z,3.67
2023-01-06T07:25:58.669Z,4.40
2023-01-06T07:28:30.336Z,4.18
2023-01-06T07:31:02.055Z,4.43
2023-01-06T07:33:52.259Z,3.67
2023-01-06T07:36:32.291Z,3.70
2023-01-06T07:39:13.691Z,4.85
2023-01-06T07:41:49.228Z,4.88
2023-01-06T07:44:50.519Z,3.50
2023-01-06T07:47:22.304Z,4.45
2023-01-06T07:49:56.581Z,3.65
2023-01-06T07:52:31.440Z,4.57
2023-01-06T07:55:05.404Z,3.67
2023-01-06T07:57:35.587Z,3.58
2023-01-06T08:00:06.420Z,4.70
2023-01-06T08:02:35.193Z,3.95
2023-01-06T08:05:06.204Z,3.97
2023-01-06T08:07:44.701Z,3.03
2023-01-06T08:10:23.533Z,4.55
2023-01-06T08:13:01.317Z,4.75
2023-01-06T08:15:41.733Z,4.03
2023-01-06T08:18:15.473Z,4.35
2023-01-06T08:20:46.459Z,3.58
2023-01-06T08:23:45.795Z,3.50
2023-01-06T08:26:26.481Z,3.45
2023-01-06T08:29:00.379Z,3.92
2023-01-06T08:31:31.585Z,3.08
2023-01-06T08:34:05.704Z,2.78
2023-01-06T08:36:38.972Z,2.30
2023-01-06T08:39:17.747Z,2.65
2023-01-06T08:41:58.642Z,2.47
2023-01-06T08:44:28.025Z,2.60
2023-01-06T08:47:04.271Z,2.75
2023-01-06T08:49:42.015Z,2.10
2023-01-06T08:52:15.513Z,6.43
2023-01-06T08:54:45.337Z,2.70
2023-01-06T08:57:20.197Z,2.60
2023-01-06T08:59:57.767Z,2.85
2023-01-06T09:02:32.043Z,2.40
2023-01-06T09:05:06.046Z,2.30
2023-01-06T09:07:41.547Z,2.30
2023-01-06T09:10:15.552Z,2.10
2023-01-06T09:12:51.861Z,3.17
2023-01-06T09:15:21.759Z,2.58
2023-01-06T09:17:55.203Z,4.20
2023-01-06T09:20:23.642Z,4.32
2023-01-06T09:23:07.546Z,3.33
2023-01-06T09:25:40.195Z,4.10
2023-01-06T09:28:12.479Z,2.90
2023-01-06T09:30:46.387Z,3.20
2023-01-06T09:33:16.991Z,4.05
2023-01-06T09:35:47.439Z,2.72
2023-01-06T09:38:20.162Z,2.90
2023-01-06T09:40:56.280Z,3.80
2023-01-06T09:43:32.950Z,4.78
2023-01-06T09:46:07.202Z,3.80
2023-01-06T09:48:38.181Z,4.82
2023-01-06T09:51:10.369Z,3.08
2023-01-06T09:53:41.724Z,2.95
2023-01-06T09:56:21.588Z,5.25
2023-01-06T09:58:55.329Z,4.15
2023-01-06T10:01:30.052Z,2.60
2023-01-06T10:04:05.846Z,2.58
2023-01-06T10:06:40.821Z,2.17
2023-01-06T10:09:21.843Z,4.55
2023-01-06T10:12:08.059Z,17.42
2023-01-06T10:14:45.748Z,14.02
2023-01-06T10:17:35.607Z,2.17
2023-01-06T10:23:31.152Z,3.38
2023-01-06T10:26:06.841Z,3.10
2023-01-06T10:28:48.542Z,2.63
2023-01-06T10:31:25.098Z,3.00
2023-01-06T10:33:57.219Z,5.15
2023-01-06T10:36:31.985Z,4.13
2023-01-06T10:39:07.020Z,3.45
2023-01-06T10:41:46.574Z,2.92
2023-01-06T10:44:18.383Z,3.83
2023-01-06T10:46:50.244Z,2.65
2023-01-06T10:49:22.958Z,2.40
2023-01-06T10:52:07.597Z,2.50
2023-01-06T10:54:44.376Z,4.63
2023-01-06T10:57:24.546Z,3.40
2023-01-06T11:00:13.021Z,3.05
2023-01-06T11:02:49.221Z,2.78
2023-01-06T11:05:18.981Z,2.75
2023-01-06T11:07:49.194Z,1.80
2023-01-06T11:10:37.922Z,2.25
2023-01-06T11:13:14.221Z,1.73
2023-01-06T11:15:53.980Z,2.35
2023-01-06T11:19:05.382Z,1.92
2023-01-06T11:21:49.245Z,2.47
2023-01-06T11:24:23.212Z,1.70
2023-01-06T11:27:03.782Z,1.80
2023-01-06T11:29:36.390Z,1.80
2023-01-06T11:32:15.066Z,3.08
2023-01-06T11:34:59.401Z,1.60
2023-01-06T11:37:34.863Z,1.77
2023-01-06T11:40:11.638Z,1.75
2023-01-06T11:42:43.661Z,3.05
2023-01-06T11:45:30.989Z,5.18
2023-01-06T11:48:05.289Z,3.15
2023-01-06T11:50:40.320Z,2.90
2023-01-06T11:53:25.973Z,2.85
2023-01-06T11:56:02.830Z,1.88
2023-01-06T11:58:48.836Z,2.38
2023-01-06T12:01:25.058Z,2.00
2023-01-06T12:04:05.491Z,1.77
2023-01-06T12:06:40.094Z,1.88
2023-01-06T12:09:14.147Z,1.20
2023-01-06T12:11:49.371Z,1.27
2023-01-06T12:14:29.922Z,1.48
2023-01-06T12:17:13.727Z,1.27
2023-01-06T12:19:49.931Z,1.13
2023-01-06T12:22:38.600Z,1.48
2023-01-06T12:25:25.267Z,1.67
2023-01-06T12:27:55.952Z,1.83
2023-01-06T12:30:33.711Z,1.75
2023-01-06T12:33:05.446Z,2.33
2023-01-06T12:35:40.269Z,3.45
2023-01-06T12:38:15.442Z,1.83
2023-01-06T12:40:46.419Z,1.50
2023-01-06T12:43:18.089Z,2.22
2023-01-06T12:46:05.643Z,2.15
2023-01-06T12:48:45.729Z,2.60
2023-01-06T12:51:21.748Z,1.92
2023-01-06T12:53:56.387Z,2.13
2023-01-06T12:56:36.765Z,2.95
2023-01-06T12:59:17.755Z,3.83
2023-01-06T13:01:48.994Z,1.90
2023-01-06T13:04:36.562Z,2.33
2023-01-06T13:07:20.209Z,2.85
2023-01-06T13:09:58.111Z,2.15
2023-01-06T13:12:34.755Z,2.72
2023-01-06T13:15:11.145Z,3.35
2023-01-06T13:17:43.109Z,2.85
2023-01-06T13:20:15.255Z,2.67
2023-01-06T13:22:47.876Z,3.05
2023-01-06T13:25:28.539Z,2.20
2023-01-06T13:28:02.677Z,3.53
2023-01-06T13:30:38.775Z,4.07
2023-01-06T13:33:17.605Z,3.55
2023-01-06T13:35:58.118Z,2.78
2023-01-06T13:38:34.299Z,3.92
2023-01-06T13:41:06.856Z,3.42
2023-01-06T13:43:36.569Z,3.00
2023-01-06T13:46:09.392Z,4.15
2023-01-06T13:48:40.046Z,3.07
2023-01-06T13:51:09.965Z,3.15
2023-01-06T13:53:39.246Z,2.67
2023-01-06T13:56:29.059Z,2.17
2023-01-06T13:59:20.416Z,2.33
2023-01-06T14:01:49.174Z,2.45
2023-01-06T14:04:42.960Z,2.88
2023-01-06T14:07:16.888Z,2.28
2023-01-06T14:09:51.699Z,2.42
2023-01-06T14:12:23.980Z,2.35
2023-01-06T14:15:00.333Z,3.20
2023-01-06T14:17:41.156Z,1.90
2023-01-06T14:20:25.687Z,4.53
2023-01-06T14:23:09.134Z,3.15
2023-01-06T14:25:43.691Z,2.38
2023-01-06T14:28:35.582Z,2.50
2023-01-06T14:31:24.903Z,3.35
2023-01-06T14:33:59.596Z,2.80
2023-01-06T14:36:28.908Z,1.60
2023-01-06T14:39:03.393Z,3.97
2023-01-06T14:41:34.090Z,2.35
2023-01-06T14:44:07.615Z,3.10
2023-01-06T14:49:09.088Z,3.17
2023-01-06T14:51:37.888Z,5.50
2023-01-06T14:54:09.256Z,3.67
2023-01-06T14:56:37.865Z,6.43
2023-01-06T14:59:14.203Z,5.28
2023-01-06T15:01:46.483Z,5.38
2023-01-06T15:04:27.381Z,5.93
2023-01-06T15:07:01.148Z,4.85
2023-01-06T15:11:58.435Z,4.75
2023-01-06T15:14:32.305Z,5.22
2023-01-06T15:17:03.364Z,4.55
2023-01-06T15:19:34.001Z,4.70
2023-01-06T15:22:03.172Z,4.75
2023-01-06T15:24:35.752Z,6.60
2023-01-06T15:27:11.370Z,5.43
2023-01-06T15:29:42.332Z,6.13
2023-01-06T15:32:13.908Z,4.20
2023-01-06T15:34:47.179Z,4.45
2023-01-06T15:37:19.644Z,4.60
2023-01-06T15:39:48.429Z,5.28
2023-01-06T15:42:18.589Z,4.03
2023-01-06T15:44:56.120Z,3.42
2023-01-06T15:47:30.301Z,3.42
2023-01-06T15:50:02.710Z,4.57
2023-01-06T15:52:33.712Z,3.95
2023-01-06T15:55:03.785Z,3.83
2023-01-06T15:57:37.035Z,3.20
2023-01-06T16:00:08.108Z,2.05
2023-01-06T16:02:39.165Z,3.20
2023-01-06T16:05:26.265Z,2.60
2023-01-06T16:08:03.671Z,4.53
2023-01-06T16:10:33.417Z,2.72
2023-01-06T16:13:17.936Z,2.20
2023-01-06T16:15:47.976Z,3.58
2023-01-06T16:18:17.560Z,3.38
2023-01-06T16:20:46.145Z,2.83
2023-01-06T16:23:26.921Z,3.53
2023-01-06T16:26:05.857Z,2.97
2023-01-06T16:28:35.128Z,3.80
2023-01-06T16:31:09.165Z,3.17
2023-01-06T16:33:53.189Z,2.97
2023-01-06T16:36:24.796Z,2.33
2023-01-06T16:38:57.817Z,3.03
2023-01-06T16:41:28.581Z,2.22
2023-01-06T16:43:57.253Z,3.13
2023-01-06T16:46:27.585Z,1.88
2023-01-06T16:48:57.493Z,2.22
2023-01-06T16:51:26.167Z,2.30
2023-01-06T16:53:56.532Z,3.67
2023-01-06T16:56:25.699Z,3.42
2023-01-06T16:58:57.815Z,2.90
2023-01-06T17:01:43.626Z,2.03
2023-01-06T17:04:24.718Z,3.45
2023-01-06T17:06:53.572Z,4.05
2023-01-06T17:09:26.026Z,4.57
2023-01-06T17:11:59.128Z,3.70
2023-01-06T17:14:33.948Z,3.95
2023-01-06T17:17:03.552Z,4.05
2023-01-06T17:19:34.163Z,2.97
2023-01-06T17:22:05.630Z,4.07
2023-01-06T17:24:37.385Z,5.40
2023-01-06T17:27:16.177Z,7.90
2023-01-06T17:29:47.620Z,9.32
2023-01-06T17:32:21.785Z,4.28
2023-01-06T17:34:53.239Z,2.50
2023-01-06T17:37:29.266Z,2.28
2023-01-06T17:40:04.582Z,2.40
2023-01-06T17:42:35.962Z,1.70
2023-01-06T17:45:27.763Z,3.60
2023-01-06T17:48:01.999Z,2.25
2023-01-06T17:50:33.980Z,2.45
2023-01-06T17:53:32.697Z,4.13
2023-01-06T17:56:06.394Z,3.45
2023-01-06T17:58:43.966Z,8.30
2023-01-06T18:01:25.939Z,3.47
2023-01-06T18:04:09.751Z,2.60
2023-01-06T18:06:41.130Z,2.60
2023-01-06T18:09:26.609Z,3.38
2023-01-06T18:12:07.247Z,2.75
2023-01-06T18:14:52.563Z,4.07
2023-01-06T18:17:24.944Z,4.45
2023-01-06T18:19:54.076Z,3.28
2023-01-06T18:22:29.208Z,2.75
2023-01-06T18:25:00.048Z,4.03
2023-01-06T18:27:40.088Z,2.75
2023-01-06T18:30:28.520Z,3.70
2023-01-06T18:33:38.480Z,3.67
2023-01-06T18:36:44.716Z,4.18
2023-01-06T18:39:40.467Z,3.97
2023-01-06T18:46:22.201Z,4.15
2023-01-06T18:49:23.369Z,3.85
2023-01-06T18:59:09.171Z,2.25
2023-01-06T19:02:31.385Z,3.03
2023-01-06T19:05:31.352Z,2.42
2023-01-06T19:08:18.894Z,1.90
2023-01-06T19:11:27.536Z,3.38
2023-01-06T19:14:50.125Z,2.65
2023-01-06T19:17:57.909Z,3.28
2023-01-06T19:21:06.810Z,2.65
2023-01-06T19:23:42.908Z,2.97
2023-01-06T19:29:40.266Z,2.60
2023-01-06T19:32:21.233Z,2.50
2023-01-06T19:35:20.389Z,2.55
2023-01-06T19:38:45.560Z,2.92
2023-01-06T19:42:24.695Z,2.05
2023-01-06T19:51:56.848Z,2.13
2023-01-06T19:54:49.258Z,2.67
2023-01-06T20:04:06.807Z,1.52
2023-01-06T20:06:55.606Z,1.88
2023-01-06T20:13:28.962Z,1.65
2023-01-06T20:16:18.114Z,2.13
2023-01-06T20:42:32.018Z,1.70
2023-01-06T20:45:37.975Z,1.85
2023-01-06T20:48:25.910Z,2.05
2023-01-06T20:51:45.006Z,1.75
2023-01-06T20:54:47.701Z,1.60
2023-01-06T20:57:45.817Z,1.45
2023-01-06T21:00:51.077Z,1.25
2023-01-06T21:04:21.097Z,1.70
2023-01-06T21:07:46.637Z,1.90
2023-01-06T21:10:28.338Z,1.75
2023-01-06T21:19:53.682Z,1.60
2023-01-06T21:25:39.891Z,1.63
2023-01-06T21:28:32.422Z,2.33
2023-01-06T21:31:08.347Z,1.50
2023-01-06T21:33:59.044Z,1.25
2023-01-06T21:36:45.280Z,1.58
2023-01-06T21:39:24.407Z,1.50
2023-01-06T21:42:26.628Z,1.67
2023-01-06T21:45:24.153Z,1.95
2023-01-06T21:48:10.200Z,1.63
2023-01-06T21:50:52.270Z,1.38
2023-01-06T21:53:24.640Z,1.67
2023-01-06T21:56:34.375Z,1.90
2023-01-06T21:59:20.975Z,1.33
2023-01-06T22:02:12.467Z,1.92
2023-01-06T22:04:52.370Z,3.95
2023-01-06T22:10:38.403Z,2.90
2023-01-06T22:15:41.346Z,1.60
2023-01-06T22:18:26.086Z,1.90
2023-01-06T22:21:19.174Z,1.67
2023-01-06T22:23:58.504Z,1.27
2023-01-06T22:26:37.720Z,1.30
2023-01-06T22:29:20.901Z,2.05
2023-01-06T22:32:13.275Z,1.90
2023-01-06T22:34:59.310Z,1.25
2023-01-06T22:38:03.621Z,1.92
2023-01-06T22:40:43.922Z,1.67
2023-01-06T22:43:24.755Z,2.97
2023-01-06T22:46:09.975Z,1.77
2023-01-06T22:48:47.214Z,2.58
2023-01-06T22:54:25.609Z,3.40
2023-01-06T22:57:00.192Z,2.13
2023-01-06T22:59:28.915Z,1.98
2023-01-06T23:02:03.980Z,1.83
2023-01-06T23:04:37.849Z,2.13
2023-01-06T23:10:26.329Z,1.38
2023-01-06T23:13:08.450Z,1.77
2023-01-06T23:15:42.613Z,2.00
2023-01-06T23:18:15.161Z,1.33
2023-01-06T23:21:08.661Z,1.50
2023-01-06T23:23:40.628Z,1.63
2023-01-06T23:26:19.040Z,1.30
2023-01-06T23:29:02.207Z,1.17
2023-01-06T23:31:57.615Z,1.37
2023-01-06T23:34:40.716Z,1.15
2023-01-06T23:37:20.497Z,1.50
2023-01-06T23:40:03.128Z,1.30
2023-01-06T23:42:48.087Z,1.42
2023-01-06T23:45:37.651Z,1.05
2023-01-06T23:48:31.345Z,2.42
2023-01-06T23:51:06.179Z,1.73
2023-01-06T23:53:42.524Z,1.20
2023-01-06T23:56:32.142Z,1.13
2023-01-06T23:59:08.764Z,1.20
